TimePDT,TemperatureF,Dew PointF,Humidity,Sea Level PressureIn,VisibilityMPH,Wind Direction,Wind SpeedMPH,Gust SpeedMPH,PrecipitationIn,Events,Conditions,WindDirDegrees,DateUTC
12:54 AM,59.0,53.1,81,30.05,10.0,Calm,Calm,-,N/A,,Clear,0,2013-07-20 07:54:00
1:54 AM,57.0,54.0,89,30.05,10.0,Calm,Calm,-,N/A,,Clear,0,2013-07-20 08:54:00
2:54 AM,54.0,53.1,97,30.05,10.0,Calm,Calm,-,N/A,,Clear,0,2013-07-20 09:54:00
3:54 AM,53.1,51.1,93,30.05,9.0,Calm,Calm,-,N/A,,Clear,0,2013-07-20 10:54:00
4:16 AM,51.8,51.8,100,30.06,2.5,Calm,Calm,-,N/A,,Partly Cloudy,0,2013-07-20 11:16:00
4:24 AM,51.8,50.0,94,30.06,6.0,Calm,Calm,-,N/A,,Clear,0,2013-07-20 11:24:00
4:29 AM,48.2,48.2,100,30.06,2.5,Calm,Calm,-,N/A,,Partly Cloudy,0,2013-07-20 11:29:00
4:44 AM,50.0,48.2,94,30.06,1.2,Calm,Calm,-,N/A,,Clear,0,2013-07-20 11:44:00
4:52 AM,51.8,50.0,94,30.06,2.0,Calm,Calm,-,N/A,,Clear,0,2013-07-20 11:52:00
4:54 AM,52.0,50.0,93,30.06,3.0,Calm,Calm,-,N/A,,Clear,0,2013-07-20 11:54:00
5:13 AM,51.8,50.0,94,30.06,1.8,Calm,Calm,-,N/A,,Clear,0,2013-07-20 12:13:00
5:18 AM,50.0,48.2,94,30.06,0.8,Calm,Calm,-,N/A,,Clear,0,2013-07-20 12:18:00
5:29 AM,50.0,48.2,94,30.06,1.0,Calm,Calm,-,N/A,,Clear,0,2013-07-20 12:29:00
5:36 AM,50.0,48.2,94,30.06,0.8,Calm,Calm,-,N/A,,Clear,0,2013-07-20 12:36:00
5:48 AM,51.8,50.0,94,30.07,6.0,Calm,Calm,-,N/A,Fog,Clear,0,2013-07-20 12:48:00
5:54 AM,51.1,50.0,96,30.06,6.0,Calm,Calm,-,N/A,Fog,Clear,0,2013-07-20 12:54:00
6:23 AM,50.0,48.2,94,30.07,4.0,Calm,Calm,-,N/A,Fog,Scattered Clouds,0,2013-07-20 13:23:00
6:54 AM,54.0,52.0,93,30.07,6.0,Calm,Calm,-,N/A,Fog,Scattered Clouds,0,2013-07-20 13:54:00
7:54 AM,57.9,53.1,84,30.08,10.0,North,3.5,-,N/A,,Scattered Clouds,360,2013-07-20 14:54:00
8:17 AM,60.8,53.6,77,30.08,10.0,North,8.1,-,N/A,,Mostly Cloudy,360,2013-07-20 15:17:00
8:54 AM,60.1,53.1,78,30.08,10.0,North,9.2,-,N/A,,Overcast,350,2013-07-20 15:54:00
9:51 AM,62.6,53.6,72,30.08,10.0,NNE,8.1,-,N/A,,Mostly Cloudy,30,2013-07-20 16:51:00
9:54 AM,64.0,54.0,70,30.08,10.0,NNE,11.5,-,N/A,,Mostly Cloudy,30,2013-07-20 16:54:00
10:07 AM,66.2,53.6,64,30.07,10.0,NNE,10.4,-,N/A,,Scattered Clouds,20,2013-07-20 17:07:00
10:54 AM,69.1,54.0,58,30.06,10.0,NNE,11.5,-,N/A,,Partly Cloudy,20,2013-07-20 17:54:00
11:54 AM,72.0,54.0,53,30.04,10.0,NE,11.5,-,N/A,,Clear,40,2013-07-20 18:54:00
12:54 PM,77.0,55.0,47,30.02,10.0,NNE,13.8,21.9,N/A,,Clear,20,2013-07-20 19:54:00
1:54 PM,80.1,55.9,43,30.01,10.0,North,13.8,19.6,N/A,,Clear,350,2013-07-20 20:54:00
2:54 PM,84.0,54.0,35,29.99,10.0,NNE,15.0,24.2,N/A,,Clear,20,2013-07-20 21:54:00
3:54 PM,84.9,55.0,36,29.97,10.0,NNE,18.4,24.2,N/A,,Clear,20,2013-07-20 22:54:00
4:54 PM,86.0,53.1,32,29.95,10.0,NNE,18.4,-,N/A,,Clear,20,2013-07-20 23:54:00
5:54 PM,84.9,52.0,32,29.93,10.0,NNE,15.0,23.0,N/A,,Clear,30,2013-07-21 00:54:00
6:54 PM,82.9,54.0,37,29.92,10.0,NNE,15.0,-,N/A,,Clear,20,2013-07-21 01:54:00
7:54 PM,81.0,57.0,44,29.92,10.0,NNE,9.2,-,N/A,,Clear,30,2013-07-21 02:54:00
8:54 PM,73.0,57.9,59,29.93,10.0,NNE,9.2,-,N/A,,Clear,20,2013-07-21 03:54:00
9:54 PM,66.9,57.0,70,29.95,10.0,North,8.1,-,N/A,,Clear,350,2013-07-21 04:54:00
10:54 PM,62.1,55.0,78,29.95,10.0,Calm,Calm,-,N/A,,Clear,0,2013-07-21 05:54:00
11:54 PM,61.0,55.0,81,29.96,10.0,Calm,Calm,-,N/A,,Clear,0,2013-07-21 06:54:00